createdAt,value
2023-04-08T00:02:15.834Z,85.70
2023-04-08T00:04:43.500Z,85.60
2023-04-08T00:07:11.273Z,85.60
2023-04-08T00:09:38.841Z,85.70
2023-04-08T00:12:06.222Z,85.80
2023-04-08T00:14:33.413Z,85.90
2023-04-08T00:17:00.695Z,86.00
2023-04-08T00:19:28.011Z,86.20
2023-04-08T00:21:57.996Z,86.20
2023-04-08T00:24:28.269Z,86.20
2023-04-08T00:26:56.516Z,86.90
2023-04-08T00:29:26.807Z,87.00
2023-04-08T00:31:54.270Z,86.70
2023-04-08T00:34:21.494Z,86.90
2023-04-08T00:36:48.745Z,87.30
2023-04-08T00:39:17.066Z,87.50
2023-04-08T00:41:44.379Z,87.60
2023-04-08T00:44:11.579Z,87.40
2023-04-08T00:46:40.551Z,87.40
2023-04-08T00:49:08.166Z,87.20
2023-04-08T00:51:36.476Z,87.50
2023-04-08T00:54:04.933Z,87.40
2023-04-08T00:56:33.034Z,87.30
2023-04-08T00:59:00.997Z,87.20
2023-04-08T01:01:39.898Z,87.30
2023-04-08T01:04:20.568Z,87.40
2023-04-08T01:06:59.816Z,87.20
2023-04-08T01:09:32.607Z,87.20
2023-04-08T01:12:05.323Z,87.30
2023-04-08T01:14:34.807Z,87.30
2023-04-08T01:17:02.523Z,87.50
2023-04-08T01:19:33.617Z,87.50
2023-04-08T01:22:15.421Z,87.60
2023-04-08T01:24:45.524Z,87.60
2023-04-08T01:27:14.375Z,87.90
2023-04-08T01:29:43.156Z,87.70
2023-04-08T01:32:11.987Z,87.80
2023-04-08T01:34:41.490Z,87.90
2023-04-08T01:37:09.191Z,87.90
2023-04-08T01:39:38.518Z,88.10
2023-04-08T01:42:06.266Z,87.90
2023-04-08T01:44:35.152Z,87.90
2023-04-08T01:47:03.699Z,88.00
2023-04-08T01:49:31.275Z,88.10
2023-04-08T01:52:01.652Z,88.00
2023-04-08T01:54:28.875Z,88.50
2023-04-08T01:56:58.459Z,88.40
2023-04-08T01:59:32.392Z,88.30
2023-04-08T02:02:02.147Z,88.40
2023-04-08T02:04:29.557Z,88.50
2023-04-08T02:06:58.177Z,88.50
2023-04-08T02:09:25.678Z,88.40
2023-04-08T02:11:53.199Z,88.40
2023-04-08T02:14:20.538Z,88.60
2023-04-08T02:17:11.455Z,88.70
2023-04-08T02:19:47.926Z,88.50
2023-04-08T02:22:35.562Z,88.50
2023-04-08T02:25:04.670Z,88.70
2023-04-08T02:27:35.346Z,89.00
2023-04-08T02:30:05.680Z,89.00
2023-04-08T02:32:33.937Z,89.10
2023-04-08T02:35:05.950Z,89.10
2023-04-08T02:37:33.535Z,89.10
2023-04-08T02:40:00.946Z,89.40
2023-04-08T02:42:28.184Z,89.20
2023-04-08T02:44:56.875Z,89.10
2023-04-08T02:47:24.112Z,89.00
2023-04-08T02:49:53.326Z,88.90
2023-04-08T02:52:20.638Z,89.10
2023-04-08T02:54:47.886Z,89.20
2023-04-08T02:57:16.981Z,89.10
2023-04-08T02:59:44.220Z,89.10
2023-04-08T03:02:11.506Z,89.10
2023-04-08T03:04:38.796Z,89.00
2023-04-08T03:07:08.411Z,88.70
2023-04-08T03:09:35.958Z,88.80
2023-04-08T03:12:03.169Z,88.80
2023-04-08T03:14:30.351Z,88.90
2023-04-08T03:16:57.649Z,88.90
2023-04-08T03:19:24.863Z,89.10
2023-04-08T03:21:52.068Z,89.00
2023-04-08T03:24:19.264Z,89.20
2023-04-08T03:26:46.460Z,89.10
2023-04-08T03:29:13.765Z,89.40
2023-04-08T03:31:41.217Z,89.30
2023-04-08T03:34:08.453Z,89.10
2023-04-08T03:36:35.949Z,89.20
2023-04-08T03:39:03.771Z,89.10
2023-04-08T03:41:31.131Z,89.10
2023-04-08T03:43:58.456Z,89.10
2023-04-08T03:46:25.850Z,89.20
2023-04-08T03:48:53.125Z,89.40
2023-04-08T03:51:20.340Z,89.40
2023-04-08T03:53:49.127Z,89.20
2023-04-08T03:56:16.390Z,89.30
2023-04-08T03:58:43.592Z,89.50
2023-04-08T04:01:10.872Z,89.40
2023-04-08T04:03:38.153Z,89.10
2023-04-08T04:06:05.581Z,89.30
2023-04-08T04:08:32.832Z,89.10
2023-04-08T04:11:00.394Z,89.40
2023-04-08T04:13:27.717Z,89.70
2023-04-08T04:15:55.009Z,89.50
2023-04-08T04:18:22.276Z,89.60
2023-04-08T04:20:49.521Z,89.50
2023-04-08T04:23:16.899Z,89.20
2023-04-08T04:25:44.357Z,89.30
2023-04-08T04:28:11.567Z,89.30
2023-04-08T04:30:41.812Z,89.20
2023-04-08T04:33:09.021Z,89.00
2023-04-08T04:35:36.277Z,88.90
2023-04-08T04:38:05.572Z,89.10
2023-04-08T04:40:32.788Z,89.40
2023-04-08T04:43:00.327Z,89.30
2023-04-08T04:45:27.568Z,89.30
2023-04-08T04:47:54.782Z,89.50
2023-04-08T04:50:21.992Z,89.50
2023-04-08T04:52:49.300Z,89.60
2023-04-08T04:55:16.580Z,89.70
2023-04-08T04:57:44.440Z,89.50
2023-04-08T05:00:12.156Z,89.40
2023-04-08T05:02:39.509Z,89.30
2023-04-08T05:05:07.389Z,89.20
2023-04-08T05:07:38.486Z,89.20
2023-04-08T05:10:06.830Z,89.30
2023-04-08T05:12:34.170Z,89.30
2023-04-08T05:15:02.119Z,89.40
2023-04-08T05:17:29.330Z,89.70
2023-04-08T05:19:56.527Z,89.60
2023-04-08T05:22:23.706Z,89.60
2023-04-08T05:24:50.997Z,89.70
2023-04-08T05:27:18.165Z,89.60
2023-04-08T05:29:45.718Z,89.50
2023-04-08T05:32:13.000Z,89.80
2023-04-08T05:34:40.228Z,89.90
2023-04-08T05:37:07.417Z,89.80
2023-04-08T05:39:34.612Z,89.70
2023-04-08T05:42:01.837Z,89.70
2023-04-08T05:44:30.206Z,89.80
2023-04-08T05:46:58.175Z,89.80
2023-04-08T05:49:25.425Z,89.70
2023-04-08T05:51:52.667Z,89.80
2023-04-08T05:54:19.877Z,89.70
2023-04-08T05:56:48.957Z,89.70
2023-04-08T05:59:16.196Z,89.70
2023-04-08T06:01:43.490Z,89.90
2023-04-08T06:04:10.846Z,90.00
2023-04-08T06:06:41.245Z,89.70
2023-04-08T06:09:09.910Z,89.90
2023-04-08T06:11:37.112Z,89.90
2023-04-08T06:14:04.318Z,90.00
2023-04-08T06:16:31.639Z,89.90
2023-04-08T06:18:59.126Z,90.00
2023-04-08T06:21:26.624Z,89.80
2023-04-08T06:23:54.815Z,90.00
2023-04-08T06:26:22.160Z,89.80
2023-04-08T06:28:49.655Z,90.00
2023-04-08T06:31:17.016Z,89.90
2023-04-08T06:33:44.237Z,89.80
2023-04-08T06:36:13.220Z,89.80
2023-04-08T06:38:40.778Z,89.70
2023-04-08T06:41:09.977Z,89.50
2023-04-08T06:43:38.275Z,89.60
2023-04-08T06:46:05.519Z,89.60
2023-04-08T06:48:32.850Z,89.70
2023-04-08T06:51:01.697Z,89.60
2023-04-08T06:53:33.324Z,89.40
2023-04-08T06:56:00.741Z,89.40
2023-04-08T06:58:27.966Z,89.30
2023-04-08T07:00:56.186Z,89.50
2023-04-08T07:03:24.074Z,89.60
2023-04-08T07:05:52.084Z,89.50
2023-04-08T07:08:19.305Z,89.40
2023-04-08T07:10:46.533Z,89.20
2023-04-08T07:13:13.795Z,89.20
2023-04-08T07:15:41.579Z,89.20
2023-04-08T07:18:08.864Z,89.10
2023-04-08T07:20:38.297Z,89.00
2023-04-08T07:23:05.596Z,88.90
2023-04-08T07:25:34.315Z,88.80
2023-04-08T07:28:05.255Z,88.90
2023-04-08T07:30:32.555Z,89.00
2023-04-08T07:33:00.982Z,88.90
2023-04-08T07:35:29.450Z,89.00
2023-04-08T07:37:57.700Z,88.80
2023-04-08T07:40:25.055Z,88.50
2023-04-08T07:42:58.235Z,88.50
2023-04-08T07:45:25.901Z,88.60
2023-04-08T07:47:53.145Z,88.60
2023-04-08T07:50:20.373Z,88.50
2023-04-08T07:52:47.555Z,88.40
2023-04-08T07:55:14.920Z,88.10
2023-04-08T07:57:42.177Z,87.80
2023-04-08T08:00:12.134Z,87.80
2023-04-08T08:02:50.306Z,87.60
2023-04-08T08:05:23.481Z,87.80
2023-04-08T08:07:54.761Z,87.70
2023-04-08T08:10:29.517Z,87.50
2023-04-08T08:13:00.453Z,87.60
2023-04-08T08:15:32.493Z,87.70
2023-04-08T08:18:08.763Z,87.50
2023-04-08T08:20:43.374Z,87.70
2023-04-08T08:23:35.402Z,87.40
2023-04-08T08:26:39.669Z,87.70
2023-04-08T08:29:48.466Z,87.60
2023-04-08T08:32:43.122Z,87.50
2023-04-08T08:35:43.040Z,87.20
2023-04-08T08:38:42.932Z,87.40
2023-04-08T08:44:52.198Z,87.40
2023-04-08T08:47:30.917Z,87.30
2023-04-08T08:50:05.853Z,87.30
2023-04-08T08:52:36.270Z,87.20
2023-04-08T08:55:21.855Z,87.60
2023-04-08T08:57:58.468Z,87.80
2023-04-08T09:00:40.968Z,87.70
2023-04-08T09:03:23.424Z,87.80
2023-04-08T09:06:00.124Z,87.60
2023-04-08T09:08:38.534Z,87.20
2023-04-08T09:11:28.113Z,86.90
2023-04-08T09:14:02.837Z,86.90
2023-04-08T09:16:34.383Z,87.00
2023-04-08T09:19:26.259Z,87.00
2023-04-08T09:22:31.293Z,87.20
2023-04-08T09:25:35.908Z,87.40
2023-04-08T09:28:26.333Z,87.10
2023-04-08T09:31:41.246Z,87.10
2023-04-08T09:34:18.553Z,86.60
2023-04-08T09:36:50.328Z,87.00
2023-04-08T09:39:22.080Z,86.90
2023-04-08T09:41:53.933Z,86.60
2023-04-08T09:44:30.624Z,86.40
2023-04-08T09:47:10.351Z,86.00
2023-04-08T09:50:15.199Z,86.40
2023-04-08T09:53:14.107Z,86.00
2023-04-08T09:56:16.654Z,85.70
2023-04-08T09:59:19.146Z,85.70
2023-04-08T10:02:16.753Z,86.00
2023-04-08T10:05:34.631Z,86.70
2023-04-08T10:11:24.341Z,87.30
2023-04-08T10:13:58.446Z,86.70
2023-04-08T10:16:27.511Z,85.50
2023-04-08T10:18:58.181Z,85.40
2023-04-08T10:21:39.586Z,85.80
2023-04-08T10:24:10.986Z,86.00
2023-04-08T10:26:43.295Z,85.80
2023-04-08T10:29:30.678Z,86.10
2023-04-08T10:31:58.184Z,85.30
2023-04-08T10:34:26.860Z,85.80
2023-04-08T10:36:56.676Z,85.00
2023-04-08T10:39:26.126Z,85.00
2023-04-08T10:41:53.584Z,84.90
2023-04-08T10:44:26.734Z,85.20
2023-04-08T10:46:54.905Z,85.20
2023-04-08T10:49:22.567Z,84.20
2023-04-08T10:51:50.005Z,84.20
2023-04-08T10:54:18.344Z,84.70
2023-04-08T10:56:47.665Z,84.70
2023-04-08T10:59:16.950Z,83.50
2023-04-08T11:01:46.596Z,84.20
2023-04-08T11:04:23.359Z,84.40
2023-04-08T11:06:51.469Z,84.20
2023-04-08T11:09:18.784Z,84.30
2023-04-08T11:11:46.689Z,84.40
2023-04-08T11:14:14.229Z,84.00
2023-04-08T11:16:41.477Z,84.70
2023-04-08T11:19:08.958Z,85.20
2023-04-08T11:21:37.580Z,85.00
2023-04-08T11:24:11.995Z,85.00
2023-04-08T11:26:40.348Z,85.30
2023-04-08T11:29:12.747Z,85.60
2023-04-08T11:31:40.822Z,86.10
2023-04-08T11:34:08.623Z,85.50
2023-04-08T11:36:36.857Z,84.50
2023-04-08T11:39:09.085Z,84.50
2023-04-08T11:41:38.307Z,84.50
2023-04-08T11:44:06.997Z,84.60
2023-04-08T11:46:35.563Z,85.20
2023-04-08T11:49:07.943Z,84.60
2023-04-08T11:51:54.793Z,84.50
2023-04-08T11:54:32.671Z,84.40
2023-04-08T11:57:00.984Z,83.90
2023-04-08T11:59:29.638Z,83.60
2023-04-08T12:01:57.570Z,83.70
2023-04-08T12:04:25.058Z,82.30
2023-04-08T12:06:52.407Z,81.90
2023-04-08T12:09:19.670Z,81.50
2023-04-08T12:11:47.008Z,82.20
2023-04-08T12:14:15.111Z,82.20
2023-04-08T12:16:42.630Z,82.20
2023-04-08T12:19:09.901Z,81.50
2023-04-08T12:21:38.156Z,81.40
2023-04-08T12:24:05.512Z,81.70
2023-04-08T12:26:32.734Z,81.20
2023-04-08T12:29:02.685Z,79.20
2023-04-08T12:31:29.960Z,78.30
2023-04-08T12:33:57.234Z,79.40
2023-04-08T12:36:24.602Z,80.40
2023-04-08T12:38:51.991Z,80.90
2023-04-08T12:41:19.392Z,80.10
2023-04-08T12:43:46.968Z,79.60
2023-04-08T12:46:14.515Z,80.40
2023-04-08T12:48:42.443Z,79.50
2023-04-08T12:51:10.288Z,79.60
2023-04-08T12:53:38.093Z,80.30
2023-04-08T12:56:05.684Z,79.60
2023-04-08T12:58:32.909Z,77.90
2023-04-08T13:01:00.278Z,78.20
2023-04-08T13:03:30.415Z,78.00
2023-04-08T13:05:59.065Z,78.00
2023-04-08T13:08:29.368Z,78.70
2023-04-08T13:10:56.626Z,78.70
2023-04-08T13:13:24.081Z,79.00
2023-04-08T13:15:52.133Z,78.60
2023-04-08T13:18:19.740Z,78.50
2023-04-08T13:20:46.923Z,79.30
2023-04-08T13:23:18.024Z,80.10
2023-04-08T13:25:45.575Z,80.80
2023-04-08T13:28:13.014Z,81.00
2023-04-08T13:30:40.635Z,80.50
2023-04-08T13:33:07.945Z,80.30
2023-04-08T13:35:35.368Z,80.60
2023-04-08T13:38:02.653Z,80.90
2023-04-08T13:40:30.331Z,80.70
2023-04-08T13:42:57.700Z,80.10
2023-04-08T13:45:25.297Z,79.20
2023-04-08T13:47:52.587Z,79.30
2023-04-08T13:50:19.884Z,79.10
2023-04-08T13:52:47.205Z,78.30
2023-04-08T13:55:14.591Z,78.40
2023-04-08T13:57:42.029Z,79.40
2023-04-08T14:00:12.999Z,79.40
2023-04-08T14:02:45.241Z,78.60
2023-04-08T14:05:12.626Z,79.20
2023-04-08T14:07:42.817Z,79.50
2023-04-08T14:10:12.800Z,80.00
2023-04-08T14:12:40.398Z,79.60
2023-04-08T14:15:08.400Z,79.80
2023-04-08T14:17:36.145Z,79.00
2023-04-08T14:20:05.471Z,79.50
2023-04-08T14:22:32.669Z,79.80
2023-04-08T14:25:00.213Z,79.20
2023-04-08T14:27:27.958Z,78.70
2023-04-08T14:29:55.372Z,79.30
2023-04-08T14:32:22.578Z,79.60
2023-04-08T14:34:49.772Z,79.10
2023-04-08T14:37:17.812Z,78.70
2023-04-08T14:39:46.036Z,78.80
2023-04-08T14:42:13.245Z,79.20
2023-04-08T14:44:40.431Z,78.70
2023-04-08T14:47:07.648Z,78.70
2023-04-08T14:49:34.818Z,78.50
2023-04-08T14:52:02.523Z,78.30
2023-04-08T14:54:29.716Z,78.10
2023-04-08T14:56:56.945Z,78.00
2023-04-08T14:59:24.131Z,77.20
2023-04-08T15:01:51.399Z,77.90
2023-04-08T15:04:18.686Z,78.10
2023-04-08T15:06:45.928Z,78.80
2023-04-08T15:09:13.135Z,78.40
2023-04-08T15:11:40.338Z,79.20
2023-04-08T15:14:07.534Z,80.00
2023-04-08T15:16:34.944Z,79.50
2023-04-08T15:19:02.341Z,78.80
2023-04-08T15:21:29.560Z,79.50
2023-04-08T15:23:56.853Z,78.80
2023-04-08T15:26:25.321Z,78.60
2023-04-08T15:28:55.173Z,78.80
2023-04-08T15:31:22.842Z,79.10
2023-04-08T15:33:50.368Z,79.20
2023-04-08T15:36:20.724Z,80.20
2023-04-08T15:38:49.101Z,80.00
2023-04-08T15:41:21.289Z,79.90
2023-04-08T15:43:48.927Z,80.00
2023-04-08T15:46:20.113Z,79.80
2023-04-08T15:48:48.586Z,78.90
2023-04-08T15:51:16.788Z,77.60
2023-04-08T15:53:44.169Z,78.50
2023-04-08T15:56:18.232Z,78.30
2023-04-08T15:58:46.355Z,78.00
2023-04-08T16:01:13.715Z,78.60
2023-04-08T16:03:41.138Z,77.60
2023-04-08T16:06:08.773Z,77.60
2023-04-08T16:08:37.057Z,77.50
2023-04-08T16:11:07.997Z,78.10
2023-04-08T16:13:35.293Z,78.10
2023-04-08T16:16:04.823Z,78.70
2023-04-08T16:18:32.134Z,78.60
2023-04-08T16:20:59.748Z,78.00
2023-04-08T16:23:27.055Z,78.30
2023-04-08T16:25:54.249Z,77.90
2023-04-08T16:28:21.975Z,78.10
2023-04-08T16:30:49.174Z,78.20
2023-04-08T16:33:16.557Z,77.60
2023-04-08T16:35:46.518Z,77.40
2023-04-08T16:38:15.317Z,77.00
2023-04-08T16:40:42.610Z,76.90
2023-04-08T16:43:09.844Z,76.90
2023-04-08T16:45:37.806Z,74.90
2023-04-08T16:48:05.422Z,74.40
2023-04-08T16:50:32.710Z,74.00
2023-04-08T16:52:59.911Z,74.20
2023-04-08T16:55:27.096Z,74.30
2023-04-08T16:57:54.586Z,74.90
2023-04-08T17:00:22.392Z,73.80
2023-04-08T17:02:49.893Z,73.30
2023-04-08T17:05:17.326Z,71.60
2023-04-08T17:07:47.637Z,70.60
2023-04-08T17:10:15.567Z,70.40
2023-04-08T17:12:42.880Z,70.80
2023-04-08T17:15:10.730Z,71.60
2023-04-08T17:17:38.056Z,72.70
2023-04-08T17:20:05.913Z,74.20
2023-04-08T17:22:33.160Z,75.60
2023-04-08T17:25:00.433Z,76.10
2023-04-08T17:27:27.635Z,77.00
2023-04-08T17:29:57.766Z,77.90
2023-04-08T17:32:25.344Z,78.50
2023-04-08T17:34:53.123Z,79.00
2023-04-08T17:37:21.100Z,79.30
2023-04-08T17:39:48.288Z,79.80
2023-04-08T17:42:16.831Z,80.40
2023-04-08T17:44:44.749Z,80.80
2023-04-08T17:47:12.001Z,81.20
2023-04-08T17:49:39.262Z,81.50
2023-04-08T17:52:06.484Z,81.60
2023-04-08T17:54:34.637Z,82.10
2023-04-08T17:57:02.870Z,82.50
2023-04-08T17:59:30.255Z,83.00
2023-04-08T18:01:57.616Z,83.30
2023-04-08T18:04:25.101Z,83.70
2023-04-08T18:06:52.537Z,83.90
2023-04-08T18:09:19.849Z,83.90
2023-04-08T18:11:47.112Z,84.00
2023-04-08T18:14:16.539Z,84.00
2023-04-08T18:16:43.819Z,83.90
2023-04-08T18:19:12.452Z,84.00
2023-04-08T18:21:39.627Z,84.10
2023-04-08T18:24:08.747Z,84.00
2023-04-08T18:26:36.558Z,84.20
2023-04-08T18:29:03.806Z,84.50
2023-04-08T18:31:31.312Z,84.60
2023-04-08T18:33:58.505Z,84.80
2023-04-08T18:36:26.561Z,84.80
2023-04-08T18:38:53.761Z,85.20
2023-04-08T18:41:23.185Z,85.10
2023-04-08T18:43:50.942Z,85.20
2023-04-08T18:46:19.660Z,85.20
2023-04-08T18:48:49.279Z,85.10
2023-04-08T18:51:19.208Z,85.20
2023-04-08T18:53:46.890Z,85.40
2023-04-08T18:56:18.518Z,85.80
2023-04-08T18:58:46.860Z,86.20
2023-04-08T19:01:14.460Z,86.30
2023-04-08T19:03:43.416Z,86.60
2023-04-08T19:06:12.617Z,86.70
2023-04-08T19:08:39.905Z,87.10
2023-04-08T19:11:07.178Z,86.80
2023-04-08T19:13:34.480Z,86.80
2023-04-08T19:16:01.691Z,86.30
2023-04-08T19:18:29.024Z,86.40
2023-04-08T19:20:56.303Z,86.20
2023-04-08T19:23:23.524Z,86.10
2023-04-08T19:25:51.822Z,86.10
2023-04-08T19:28:19.023Z,85.90
2023-04-08T19:30:46.393Z,85.80
2023-04-08T19:33:13.801Z,85.60
2023-04-08T19:35:41.130Z,85.60
2023-04-08T19:38:08.408Z,85.80
2023-04-08T19:40:35.638Z,85.90
2023-04-08T19:43:02.832Z,85.90
2023-04-08T19:45:30.012Z,86.00
2023-04-08T19:47:57.294Z,86.00
2023-04-08T19:50:25.414Z,86.10
2023-04-08T19:52:52.611Z,86.00
2023-04-08T19:55:19.989Z,86.30
2023-04-08T19:57:47.418Z,86.40
2023-04-08T20:00:14.688Z,86.50
2023-04-08T20:02:42.108Z,86.30
2023-04-08T20:05:14.728Z,86.30
2023-04-08T20:07:45.017Z,86.30
2023-04-08T20:10:14.958Z,86.50
2023-04-08T20:12:42.297Z,86.80
2023-04-08T20:15:23.011Z,86.60
2023-04-08T20:17:51.309Z,86.50
2023-04-08T20:20:18.547Z,86.60
2023-04-08T20:22:46.527Z,86.40
2023-04-08T20:25:13.753Z,86.30
2023-04-08T20:27:41.265Z,86.20
2023-04-08T20:30:09.472Z,86.30
2023-04-08T20:32:36.796Z,86.30
2023-04-08T20:35:05.108Z,86.30
2023-04-08T20:37:33.216Z,86.30
2023-04-08T20:40:00.901Z,86.50
2023-04-08T20:42:28.702Z,86.50
2023-04-08T20:44:55.907Z,86.60
2023-04-08T20:47:23.130Z,86.60
2023-04-08T20:49:50.438Z,86.40
2023-04-08T20:52:17.659Z,86.40
2023-04-08T20:54:44.870Z,86.40
2023-04-08T20:57:12.065Z,86.40
2023-04-08T20:59:39.299Z,86.40
2023-04-08T21:02:07.562Z,86.40
2023-04-08T21:04:34.925Z,86.50
2023-04-08T21:07:02.181Z,86.60
2023-04-08T21:09:29.360Z,86.40
2023-04-08T21:11:56.577Z,86.60
2023-04-08T21:14:23.919Z,86.70
2023-04-08T21:16:51.216Z,86.70
2023-04-08T21:19:18.448Z,87.00
2023-04-08T21:21:46.477Z,87.20
2023-04-08T21:24:13.726Z,87.10
2023-04-08T21:26:41.055Z,87.10
2023-04-08T21:29:08.327Z,87.00
2023-04-08T21:31:35.716Z,87.30
2023-04-08T21:34:03.010Z,87.30
2023-04-08T21:36:31.404Z,87.60
2023-04-08T21:38:58.605Z,87.70
2023-04-08T21:41:27.238Z,87.80
2023-04-08T21:43:55.580Z,87.80
2023-04-08T21:46:22.930Z,88.10
2023-04-08T21:48:50.317Z,87.90
2023-04-08T21:51:18.547Z,87.90
2023-04-08T21:53:45.952Z,87.70
2023-04-08T21:56:13.968Z,87.40
2023-04-08T21:58:41.239Z,87.20
2023-04-08T22:01:08.568Z,87.60
2023-04-08T22:03:35.944Z,87.70
2023-04-08T22:06:03.358Z,88.00
2023-04-08T22:08:32.495Z,88.30
2023-04-08T22:10:59.742Z,88.30
2023-04-08T22:13:27.239Z,88.80
2023-04-08T22:15:54.483Z,88.70
2023-04-08T22:18:21.732Z,88.50
2023-04-08T22:20:48.985Z,88.10
2023-04-08T22:23:16.243Z,87.90
2023-04-08T22:25:43.515Z,87.60
2023-04-08T22:28:10.796Z,87.50
2023-04-08T22:30:38.064Z,87.40
2023-04-08T22:33:05.317Z,87.30
2023-04-08T22:35:32.593Z,87.20
2023-04-08T22:37:59.813Z,87.20
2023-04-08T22:40:27.454Z,87.40
2023-04-08T22:42:56.036Z,87.70
2023-04-08T22:45:23.316Z,87.70
2023-04-08T22:47:50.572Z,87.70
2023-04-08T22:50:17.921Z,87.80
2023-04-08T22:52:45.224Z,87.90
2023-04-08T22:55:12.489Z,87.70
2023-04-08T22:57:39.777Z,87.80
2023-04-08T23:00:07.658Z,88.20
2023-04-08T23:02:35.001Z,88.40
2023-04-08T23:05:02.369Z,88.40
2023-04-08T23:07:29.601Z,88.40
2023-04-08T23:09:57.880Z,88.50
2023-04-08T23:12:25.122Z,88.70
2023-04-08T23:14:52.325Z,88.90
2023-04-08T23:17:19.567Z,88.80
2023-04-08T23:19:46.876Z,88.90
2023-04-08T23:22:14.190Z,88.90
2023-04-08T23:24:41.386Z,88.70
2023-04-08T23:27:08.859Z,88.50
2023-04-08T23:29:36.218Z,88.40
2023-04-08T23:32:03.508Z,88.50
2023-04-08T23:34:30.747Z,88.50
2023-04-08T23:36:58.188Z,88.50
2023-04-08T23:39:25.833Z,88.60
2023-04-08T23:41:53.021Z,88.70
2023-04-08T23:44:20.384Z,88.60
2023-04-08T23:46:47.656Z,88.50
2023-04-08T23:49:14.960Z,88.30
2023-04-08T23:51:42.736Z,88.40
2023-04-08T23:54:09.954Z,88.20
2023-04-08T23:56:37.202Z,88.10
2023-04-08T23:59:04.497Z,88.00
